This is the latest recevied weather packets stored in our database for station/object I2TZK-00. If no packets are shown the sender has not sent any weather packets the latest 10 day(s).
| Time | Temp. | Humidity | Pressure | Rain* | Wind** | Luminosity | Snow |
|---|---|---|---|---|---|---|---|
| 1787740550 | 29.44° C | 56% | 1010.1 hPa | - | - | - | - |
| 1787740370 | 29.44° C | 56% | 1010 hPa | - | - | - | - |
| 1787740188 | 29.44° C | 56% | 1010 hPa | - | - | - | - |
| 1787740006 | 28.89° C | 56% | 1010 hPa | - | - | - | - |
| 1787739823 | 28.89° C | 56% | 1010.4 hPa | - | - | - | - |
| 1787739642 | 28.89° C | 56% | 1010.3 hPa | - | - | - | - |
| 1787739461 | 28.89° C | 56% | 1010.4 hPa | - | - | - | - |
| 1787739279 | 28.89° C | 56% | 1010.4 hPa | - | - | - | - |
| 1787739097 | 28.89° C | 57% | 1010.4 hPa | - | - | - | - |
| 1787738917 | 28.89° C | 57% | 1010.3 hPa | - | - | - | - |
| 1787738735 | 28.89° C | 56% | 1010.4 hPa | - | - | - | - |
| 1787738552 | 28.89° C | 57% | 1010.6 hPa | - | - | - | - |
| 1787736514 | 27.22° C | 61% | 1011.6 hPa | - | - | - | - |
| 1787736133 | 26.67° C | 64% | 1012.4 hPa | - | - | - | - |
| 1787721605 | 29.44° C | 55% | 1008.9 hPa | - | - | - | - |
| 1787721054 | 29.44° C | 55% | 1008.7 hPa | - | - | - | - |
| 1787719563 | 28.89° C | 55% | 1008.7 hPa | - | - | - | - |
| 1787719383 | 28.89° C | 56% | 1008.8 hPa | - | - | - | - |
| 1787719201 | 28.33° C | 56% | 1008.9 hPa | - | - | - | - |
| 1787719019 | 28.33° C | 57% | 1009.2 hPa | - | - | - | - |
| 1787718839 | 27.78° C | 58% | 1009.4 hPa | - | - | - | - |
| 1787718654 | 27.22° C | 59% | 1009.7 hPa | - | - | - | - |
| 1787678142 | 29.44° C | 56% | 1004 hPa | - | - | - | - |
| 1787677962 | 29.44° C | 55% | 1003.9 hPa | - | - | - | - |
| 1787677782 | 29.44° C | 55% | 1004 hPa | - | - | - | - |
* Rain since midnight (hover to see other rain measurements)
** Current wind speed in m/s (hover to see current wind gust speed)